createdAt,value
2022-08-17T00:00:51.652Z,23.07
2022-08-17T00:01:51.701Z,23.06
2022-08-17T00:02:43.125Z,23.05
2022-08-17T00:03:39.652Z,23.04
2022-08-17T00:04:39.642Z,23.03
2022-08-17T00:05:39.629Z,23.02
2022-08-17T00:06:46.091Z,23.02
2022-08-17T00:07:39.633Z,23.01
2022-08-17T00:08:39.601Z,23.01
2022-08-17T00:09:39.574Z,23.00
2022-08-17T00:10:39.607Z,23.00
2022-08-17T00:11:39.541Z,22.99
2022-08-17T00:12:45.984Z,22.98
2022-08-17T00:13:39.514Z,22.97
2022-08-17T00:14:39.514Z,22.96
2022-08-17T00:15:39.492Z,22.95
2022-08-17T00:16:56.047Z,22.94
2022-08-17T00:17:41.037Z,22.93
2022-08-17T00:18:53.877Z,22.92
2022-08-17T00:19:40.480Z,22.90
2022-08-17T00:20:39.465Z,22.89
2022-08-17T00:21:59.939Z,22.88
2022-08-17T00:22:40.410Z,22.87
2022-08-17T00:23:50.021Z,22.85
2022-08-17T00:24:39.389Z,22.84
2022-08-17T00:25:39.390Z,22.83
2022-08-17T00:26:45.130Z,22.83
2022-08-17T00:27:41.933Z,22.82
2022-08-17T00:28:45.702Z,22.81
2022-08-17T00:29:39.634Z,22.80
2022-08-17T00:30:50.822Z,22.79
2022-08-17T00:31:40.774Z,22.77
2022-08-17T00:33:15.855Z,22.76
2022-08-17T00:33:46.614Z,22.75
2022-08-17T00:34:39.304Z,22.75
2022-08-17T00:35:39.244Z,22.74
2022-08-17T00:36:39.260Z,22.73
2022-08-17T00:37:39.218Z,22.73
2022-08-17T00:38:45.565Z,22.72
2022-08-17T00:39:39.288Z,22.71
2022-08-17T00:40:44.403Z,22.70
2022-08-17T00:41:42.137Z,22.69
2022-08-17T00:42:39.223Z,22.68
2022-08-17T00:43:39.218Z,22.67
2022-08-17T00:44:45.554Z,22.66
2022-08-17T00:45:39.138Z,22.65
2022-08-17T00:46:39.173Z,22.63
2022-08-17T00:47:39.201Z,22.62
2022-08-17T00:48:39.158Z,22.60
2022-08-17T00:49:45.498Z,22.59
2022-08-17T00:50:39.146Z,22.57
2022-08-17T00:51:39.079Z,22.56
2022-08-17T00:52:39.167Z,22.55
2022-08-17T00:53:39.906Z,22.54
2022-08-17T00:54:45.320Z,22.54
2022-08-17T00:55:38.998Z,22.53
2022-08-17T00:56:39.009Z,22.52
2022-08-17T00:57:38.967Z,22.51
2022-08-17T00:58:38.978Z,22.51
2022-08-17T00:59:38.947Z,22.50
2022-08-17T01:00:45.284Z,22.50
2022-08-17T01:01:38.925Z,22.50
2022-08-17T01:02:52.100Z,22.50
2022-08-17T01:03:40.422Z,22.51
2022-08-17T01:04:38.878Z,22.51
2022-08-17T01:05:42.160Z,22.50
2022-08-17T01:06:45.182Z,22.50
2022-08-17T01:07:38.858Z,22.50
2022-08-17T01:08:38.853Z,22.49
2022-08-17T01:09:38.852Z,22.48
2022-08-17T01:10:58.383Z,22.47
2022-08-17T01:11:46.157Z,22.46
2022-08-17T01:12:38.778Z,22.46
2022-08-17T01:13:41.120Z,22.45
2022-08-17T01:14:38.808Z,22.44
2022-08-17T01:15:39.029Z,22.42
2022-08-17T01:16:38.744Z,22.42
2022-08-17T01:17:45.019Z,22.41
2022-08-17T01:18:38.718Z,22.40
2022-08-17T01:19:38.712Z,22.40
2022-08-17T01:20:48.289Z,22.40
2022-08-17T01:21:40.202Z,22.40
2022-08-17T01:22:44.939Z,22.40
2022-08-17T01:23:38.664Z,22.41
2022-08-17T01:24:38.647Z,22.41
2022-08-17T01:25:38.618Z,22.42
2022-08-17T01:26:38.640Z,22.43
2022-08-17T01:27:38.639Z,22.43
2022-08-17T01:28:53.638Z,22.44
2022-08-17T01:29:40.172Z,22.45
2022-08-17T01:30:56.548Z,22.45
2022-08-17T01:31:40.059Z,22.46
2022-08-17T01:32:38.556Z,22.46
2022-08-17T01:33:38.507Z,22.46
2022-08-17T01:34:50.584Z,22.46
2022-08-17T01:35:40.096Z,22.45
2022-08-17T01:36:38.483Z,22.45
2022-08-17T01:37:38.468Z,22.44
2022-08-17T01:38:38.479Z,22.42
2022-08-17T01:39:39.547Z,22.41
2022-08-17T01:40:44.750Z,22.40
2022-08-17T01:41:38.404Z,22.39
2022-08-17T01:42:38.433Z,22.38
2022-08-17T01:43:38.682Z,22.37
2022-08-17T01:44:38.540Z,22.37
2022-08-17T01:45:38.406Z,22.37
2022-08-17T01:46:44.898Z,22.36
2022-08-17T01:47:38.345Z,22.36
2022-08-17T01:48:38.318Z,22.36
2022-08-17T01:49:38.358Z,22.36
2022-08-17T01:50:38.353Z,22.36
2022-08-17T01:51:38.295Z,22.36
2022-08-17T01:52:44.658Z,22.36
2022-08-17T01:53:38.359Z,22.36
2022-08-17T01:54:38.342Z,22.36
2022-08-17T01:55:38.254Z,22.36
2022-08-17T01:56:38.255Z,22.36
2022-08-17T01:57:38.221Z,22.36
2022-08-17T01:58:44.495Z,22.36
2022-08-17T01:59:38.244Z,22.36
2022-08-17T02:00:46.871Z,22.35
2022-08-17T02:01:39.788Z,22.35
2022-08-17T02:02:38.146Z,22.34
2022-08-17T02:03:59.040Z,22.33
2022-08-17T02:04:39.658Z,22.32
2022-08-17T02:05:38.268Z,22.31
2022-08-17T02:06:53.678Z,22.30
2022-08-17T02:07:59.511Z,22.29
2022-08-17T02:09:02.954Z,22.28
2022-08-17T02:09:39.573Z,22.27
2022-08-17T02:10:38.048Z,22.26
2022-08-17T02:11:39.596Z,22.26
2022-08-17T02:12:39.870Z,22.25
2022-08-17T02:13:38.007Z,22.25
2022-08-17T02:14:44.303Z,22.25
2022-08-17T02:15:37.985Z,22.24
2022-08-17T02:16:38.384Z,22.23
2022-08-17T02:17:37.968Z,22.22
2022-08-17T02:18:37.961Z,22.22
2022-08-17T02:19:44.234Z,22.21
2022-08-17T02:20:41.790Z,22.20
2022-08-17T02:21:38.239Z,22.19
2022-08-17T02:22:37.907Z,22.18
2022-08-17T02:23:37.959Z,22.16
2022-08-17T02:25:00.419Z,22.15
2022-08-17T02:25:39.386Z,22.14
2022-08-17T02:26:37.871Z,22.12
2022-08-17T02:27:38.135Z,22.12
2022-08-17T02:28:37.820Z,22.11
2022-08-17T02:29:38.123Z,22.10
2022-08-17T02:30:50.104Z,22.09
2022-08-17T02:31:40.421Z,22.08
2022-08-17T02:32:37.764Z,22.07
2022-08-17T02:33:42.911Z,22.06
2022-08-17T02:34:40.189Z,22.05
2022-08-17T02:35:37.723Z,22.03
2022-08-17T02:36:44.080Z,22.02
2022-08-17T02:37:37.727Z,22.01
2022-08-17T02:38:37.747Z,22.00
2022-08-17T02:39:37.743Z,21.99
2022-08-17T02:40:38.066Z,21.98
2022-08-17T02:41:37.677Z,21.97
2022-08-17T02:42:43.957Z,21.96
2022-08-17T02:43:37.615Z,21.95
2022-08-17T02:44:39.923Z,21.95
2022-08-17T02:45:37.580Z,21.94
2022-08-17T02:46:37.669Z,21.94
2022-08-17T02:47:37.605Z,21.93
2022-08-17T02:48:43.998Z,21.93
2022-08-17T02:49:37.627Z,21.92
2022-08-17T02:50:37.522Z,21.92
2022-08-17T02:51:37.578Z,21.91
2022-08-17T02:52:42.387Z,21.90
2022-08-17T02:53:39.011Z,21.89
2022-08-17T02:54:43.792Z,21.88
2022-08-17T02:55:38.727Z,21.88
2022-08-17T02:56:37.505Z,21.87
2022-08-17T02:57:37.539Z,21.86
2022-08-17T02:58:37.486Z,21.85
2022-08-17T02:59:48.781Z,21.84
2022-08-17T03:00:38.910Z,21.84
2022-08-17T03:01:37.500Z,21.83
2022-08-17T03:02:37.411Z,21.82
2022-08-17T03:03:37.419Z,21.81
2022-08-17T03:04:43.668Z,21.81
2022-08-17T03:05:37.323Z,21.80
2022-08-17T03:06:37.361Z,21.79
2022-08-17T03:07:37.386Z,21.78
2022-08-17T03:08:37.330Z,21.77
2022-08-17T03:09:37.294Z,21.76
2022-08-17T03:10:43.616Z,21.75
2022-08-17T03:11:37.363Z,21.74
2022-08-17T03:12:38.213Z,21.73
2022-08-17T03:13:37.226Z,21.72
2022-08-17T03:14:41.312Z,21.71
2022-08-17T03:15:37.272Z,21.69
2022-08-17T03:16:43.474Z,21.68
2022-08-17T03:17:37.212Z,21.67
2022-08-17T03:18:37.215Z,21.65
2022-08-17T03:19:37.178Z,21.63
2022-08-17T03:20:38.660Z,21.62
2022-08-17T03:21:37.130Z,21.61
2022-08-17T03:22:43.445Z,21.59
2022-08-17T03:23:37.105Z,21.58
2022-08-17T03:24:37.111Z,21.57
2022-08-17T03:25:37.079Z,21.56
2022-08-17T03:26:37.066Z,21.55
2022-08-17T03:27:43.322Z,21.54
2022-08-17T03:28:37.048Z,21.53
2022-08-17T03:29:37.427Z,21.53
2022-08-17T03:30:37.098Z,21.52
2022-08-17T03:31:37.279Z,21.52
2022-08-17T03:32:43.280Z,21.51
2022-08-17T03:33:38.196Z,21.51
2022-08-17T03:34:36.950Z,21.51
2022-08-17T03:35:36.948Z,21.51
2022-08-17T03:36:36.988Z,21.51
2022-08-17T03:37:37.322Z,21.51
2022-08-17T03:38:43.758Z,21.51
2022-08-17T03:39:36.939Z,21.50
2022-08-17T03:40:55.729Z,21.50
2022-08-17T03:41:38.899Z,21.50
2022-08-17T03:42:36.850Z,21.49
2022-08-17T03:43:43.787Z,21.49
2022-08-17T03:44:36.822Z,21.49
2022-08-17T03:45:36.833Z,21.48
2022-08-17T03:46:36.849Z,21.48
2022-08-17T03:47:36.869Z,21.49
2022-08-17T03:48:43.260Z,21.48
2022-08-17T03:49:36.771Z,21.49
2022-08-17T03:50:36.770Z,21.49
2022-08-17T03:51:36.841Z,21.49
2022-08-17T03:52:36.730Z,21.49
2022-08-17T03:53:43.100Z,21.49
2022-08-17T03:54:36.729Z,21.50
2022-08-17T03:55:36.696Z,21.50
2022-08-17T03:56:36.712Z,21.50
2022-08-17T03:57:36.671Z,21.50
2022-08-17T03:58:43.257Z,21.51
2022-08-17T03:59:36.634Z,21.51
2022-08-17T04:00:36.924Z,21.52
2022-08-17T04:01:36.648Z,21.52
2022-08-17T04:02:36.573Z,21.53
2022-08-17T04:03:36.718Z,21.53
2022-08-17T04:04:42.842Z,21.54
2022-08-17T04:05:36.604Z,21.54
2022-08-17T04:06:36.896Z,21.55
2022-08-17T04:07:36.581Z,21.55
2022-08-17T04:08:36.825Z,21.55
2022-08-17T04:09:36.525Z,21.55
2022-08-17T04:10:45.131Z,21.55
2022-08-17T04:11:36.516Z,21.55
2022-08-17T04:12:36.522Z,21.55
2022-08-17T04:13:36.463Z,21.55
2022-08-17T04:14:39.287Z,21.55
2022-08-17T04:15:44.546Z,21.55
2022-08-17T04:16:36.430Z,21.55
2022-08-17T04:17:36.435Z,21.55
2022-08-17T04:18:36.405Z,21.55
2022-08-17T04:19:36.369Z,21.55
2022-08-17T04:20:36.421Z,21.56
2022-08-17T04:21:42.633Z,21.56
2022-08-17T04:22:36.374Z,21.57
2022-08-17T04:23:36.333Z,21.58
2022-08-17T04:24:36.344Z,21.58
2022-08-17T04:25:36.652Z,21.59
2022-08-17T04:26:53.402Z,21.60
2022-08-17T04:27:37.803Z,21.62
2022-08-17T04:28:36.357Z,21.63
2022-08-17T04:29:54.439Z,21.64
2022-08-17T04:30:37.730Z,21.66
2022-08-17T04:31:36.248Z,21.67
2022-08-17T04:33:05.270Z,21.68
2022-08-17T04:33:37.695Z,21.69
2022-08-17T04:34:36.191Z,21.70
2022-08-17T04:35:36.176Z,21.72
2022-08-17T04:36:42.531Z,21.73
2022-08-17T04:37:44.009Z,21.75
2022-08-17T04:38:36.136Z,21.78
2022-08-17T04:39:36.122Z,21.80
2022-08-17T04:40:36.111Z,21.81
2022-08-17T04:41:36.150Z,21.83
2022-08-17T04:42:42.517Z,21.85
2022-08-17T04:43:36.051Z,21.86
2022-08-17T04:44:37.473Z,21.88
2022-08-17T04:45:36.076Z,21.89
2022-08-17T04:46:36.048Z,21.90
2022-08-17T04:47:36.058Z,21.92
2022-08-17T04:48:42.377Z,21.93
2022-08-17T04:49:36.026Z,21.95
2022-08-17T04:50:35.997Z,21.96
2022-08-17T04:51:35.979Z,21.98
2022-08-17T04:52:53.826Z,21.99
2022-08-17T04:53:43.709Z,22.00
2022-08-17T04:54:36.234Z,22.01
2022-08-17T04:55:35.900Z,22.02
2022-08-17T04:56:36.124Z,22.03
2022-08-17T04:57:37.700Z,22.04
2022-08-17T04:58:36.168Z,22.05
2022-08-17T04:59:42.188Z,22.06
2022-08-17T05:00:35.883Z,22.07
2022-08-17T05:01:35.925Z,22.09
2022-08-17T05:02:36.172Z,22.10
2022-08-17T05:03:37.590Z,22.12
2022-08-17T05:04:43.069Z,22.14
2022-08-17T05:05:35.867Z,22.15
2022-08-17T05:06:35.766Z,22.17
2022-08-17T05:07:35.789Z,22.19
2022-08-17T05:08:35.736Z,22.21
2022-08-17T05:09:42.872Z,22.24
2022-08-17T05:10:35.707Z,22.26
2022-08-17T05:11:35.709Z,22.29
2022-08-17T05:12:35.720Z,22.31
2022-08-17T05:13:35.712Z,22.34
2022-08-17T05:14:35.664Z,22.37
2022-08-17T05:15:45.075Z,22.40
2022-08-17T05:16:37.160Z,22.43
2022-08-17T05:17:35.944Z,22.46
2022-08-17T05:18:35.618Z,22.49
2022-08-17T05:19:35.605Z,22.52
2022-08-17T05:20:41.869Z,22.55
2022-08-17T05:21:35.580Z,22.58
2022-08-17T05:22:35.583Z,22.61
2022-08-17T05:23:43.037Z,22.63
2022-08-17T05:24:42.531Z,22.66
2022-08-17T05:25:37.427Z,22.69
2022-08-17T05:26:41.804Z,22.72
2022-08-17T05:27:36.038Z,22.75
2022-08-17T05:28:35.490Z,22.78
2022-08-17T05:29:36.020Z,22.80
2022-08-17T05:30:35.440Z,22.83
2022-08-17T05:31:35.434Z,22.86
2022-08-17T05:32:41.738Z,22.89
2022-08-17T05:33:36.942Z,22.92
2022-08-17T05:34:35.417Z,22.95
2022-08-17T05:35:35.428Z,22.98
2022-08-17T05:36:41.640Z,23.00
2022-08-17T05:37:43.219Z,23.02
2022-08-17T05:38:36.189Z,23.05
2022-08-17T05:39:35.373Z,23.07
2022-08-17T05:40:35.325Z,23.10
2022-08-17T05:41:35.317Z,23.13
2022-08-17T05:42:35.311Z,23.16
2022-08-17T05:43:41.603Z,23.19
2022-08-17T05:44:35.435Z,23.22
2022-08-17T05:45:55.533Z,23.26
2022-08-17T05:46:37.705Z,23.29
2022-08-17T05:47:35.260Z,23.32
2022-08-17T05:48:39.303Z,23.36
2022-08-17T05:49:42.807Z,23.39
2022-08-17T05:50:35.203Z,23.43
2022-08-17T05:51:35.202Z,23.46
2022-08-17T05:52:35.191Z,23.48
2022-08-17T05:53:36.311Z,23.51
2022-08-17T05:54:41.613Z,23.54
2022-08-17T05:55:35.159Z,23.57
2022-08-17T05:56:35.145Z,23.59
2022-08-17T05:57:35.107Z,23.62
2022-08-17T05:58:35.456Z,23.64
2022-08-17T05:59:35.137Z,23.66
2022-08-17T06:00:42.033Z,23.68
2022-08-17T06:01:35.092Z,23.71
2022-08-17T06:02:35.328Z,23.73
2022-08-17T06:03:35.052Z,23.75
2022-08-17T06:04:35.066Z,23.78
2022-08-17T06:05:41.289Z,23.80
2022-08-17T06:06:35.003Z,23.83
2022-08-17T06:07:36.067Z,23.85
2022-08-17T06:08:35.016Z,23.87
2022-08-17T06:09:34.977Z,23.88
2022-08-17T06:10:42.393Z,23.90
2022-08-17T06:11:35.344Z,23.92
2022-08-17T06:12:35.891Z,23.94
2022-08-17T06:13:34.974Z,23.96
2022-08-17T06:14:34.918Z,23.98
2022-08-17T06:15:41.243Z,24.00
2022-08-17T06:16:34.943Z,24.02
2022-08-17T06:17:34.950Z,24.05
2022-08-17T06:18:35.838Z,24.07
2022-08-17T06:19:34.875Z,24.09
2022-08-17T06:20:41.118Z,24.11
2022-08-17T06:21:34.866Z,24.13
2022-08-17T06:22:34.808Z,24.16
2022-08-17T06:23:34.782Z,24.17
2022-08-17T06:24:34.800Z,24.19
2022-08-17T06:25:41.072Z,24.21
2022-08-17T06:26:38.555Z,24.23
2022-08-17T06:27:36.257Z,24.25
2022-08-17T06:28:34.718Z,24.27
2022-08-17T06:29:34.727Z,24.29
2022-08-17T06:30:36.754Z,24.31
2022-08-17T06:31:42.335Z,24.34
2022-08-17T06:32:34.690Z,24.36
2022-08-17T06:33:35.002Z,24.38
2022-08-17T06:34:34.911Z,24.41
2022-08-17T06:35:34.657Z,24.43
2022-08-17T06:36:34.624Z,24.46
2022-08-17T06:37:40.918Z,24.48
2022-08-17T06:38:37.637Z,24.51
2022-08-17T06:39:34.916Z,24.54
2022-08-17T06:40:34.607Z,24.57
2022-08-17T06:41:37.921Z,24.60
2022-08-17T06:43:04.089Z,24.64
2022-08-17T06:43:35.544Z,24.67
2022-08-17T06:44:43.630Z,24.71
2022-08-17T06:45:36.088Z,24.74
2022-08-17T06:46:34.486Z,24.77
2022-08-17T06:47:34.575Z,24.81
2022-08-17T06:48:40.977Z,24.83
2022-08-17T06:49:34.499Z,24.87
2022-08-17T06:50:34.722Z,24.90
2022-08-17T06:51:34.713Z,24.92
2022-08-17T06:52:45.711Z,24.95
2022-08-17T06:53:43.140Z,24.98
2022-08-17T06:54:36.069Z,25.01
2022-08-17T06:55:37.936Z,25.05
2022-08-17T06:56:54.227Z,25.08
2022-08-17T06:57:35.986Z,25.11
2022-08-17T06:58:40.677Z,25.14
2022-08-17T06:59:55.903Z,25.17
2022-08-17T07:00:35.878Z,25.21
2022-08-17T07:01:34.420Z,25.24
2022-08-17T07:02:52.177Z,25.27
2022-08-17T07:03:42.120Z,25.31
2022-08-17T07:04:34.313Z,25.35
2022-08-17T07:05:34.266Z,25.38
2022-08-17T07:06:38.355Z,25.42
2022-08-17T07:07:34.224Z,25.45
2022-08-17T07:08:35.546Z,25.48
2022-08-17T07:09:40.505Z,25.51
2022-08-17T07:10:34.190Z,25.54
2022-08-17T07:11:35.401Z,25.56
2022-08-17T07:12:35.257Z,25.59
2022-08-17T07:13:34.152Z,25.61
2022-08-17T07:14:40.748Z,25.64
2022-08-17T07:15:34.113Z,25.67
2022-08-17T07:16:34.113Z,25.70
2022-08-17T07:17:46.895Z,25.74
2022-08-17T07:18:35.085Z,25.77
2022-08-17T07:19:34.068Z,25.81
2022-08-17T07:20:40.610Z,25.84
2022-08-17T07:21:34.039Z,25.88
2022-08-17T07:22:57.763Z,25.92
2022-08-17T07:23:36.146Z,25.95
2022-08-17T07:24:33.988Z,25.98
2022-08-17T07:25:34.026Z,26.01
2022-08-17T07:26:40.247Z,26.04
2022-08-17T07:27:34.743Z,26.07
2022-08-17T07:28:34.235Z,26.10
2022-08-17T07:29:35.100Z,26.12
2022-08-17T07:30:45.774Z,26.15
2022-08-17T07:31:41.811Z,26.18
2022-08-17T07:32:33.890Z,26.21
2022-08-17T07:33:34.816Z,26.25
2022-08-17T07:34:35.042Z,26.28
2022-08-17T07:35:40.791Z,26.32
2022-08-17T07:36:41.653Z,26.35
2022-08-17T07:37:33.841Z,26.39
2022-08-17T07:38:33.841Z,26.43
2022-08-17T07:39:33.910Z,26.46
2022-08-17T07:40:40.158Z,26.50
2022-08-17T07:41:53.139Z,26.53
2022-08-17T07:42:35.253Z,26.57
2022-08-17T07:43:33.732Z,26.60
2022-08-17T07:44:40.012Z,26.63
2022-08-17T07:45:33.773Z,26.65
2022-08-17T07:46:40.030Z,26.68
2022-08-17T07:47:33.713Z,26.70
2022-08-17T07:48:33.678Z,26.73
2022-08-17T07:49:33.715Z,26.75
2022-08-17T07:50:33.743Z,26.78
2022-08-17T07:51:39.936Z,26.81
2022-08-17T07:52:50.966Z,26.84
2022-08-17T07:53:35.217Z,26.87
2022-08-17T07:54:33.666Z,26.89
2022-08-17T07:55:33.625Z,26.92
2022-08-17T07:56:34.538Z,26.94
2022-08-17T07:57:39.979Z,26.97
2022-08-17T07:58:33.568Z,26.99
2022-08-17T07:59:34.031Z,27.02
2022-08-17T08:00:33.665Z,27.04
2022-08-17T08:01:39.605Z,27.06
2022-08-17T08:02:41.407Z,27.08
2022-08-17T08:03:41.305Z,27.11
2022-08-17T08:05:50.018Z,27.16
2022-08-17T08:06:34.943Z,27.18
2022-08-17T08:07:37.330Z,27.21
2022-08-17T08:08:40.218Z,27.24
2022-08-17T08:09:33.487Z,27.27
2022-08-17T08:10:37.286Z,27.30
2022-08-17T08:11:33.444Z,27.33
2022-08-17T08:12:33.825Z,27.36
2022-08-17T08:13:33.386Z,27.39
2022-08-17T08:14:39.679Z,27.42
2022-08-17T08:15:33.412Z,27.45
2022-08-17T08:16:33.650Z,27.48
2022-08-17T08:17:33.388Z,27.52
2022-08-17T08:18:53.740Z,27.54
2022-08-17T08:19:41.079Z,27.57
2022-08-17T08:20:51.407Z,27.59
2022-08-17T08:21:34.816Z,27.61
2022-08-17T08:22:33.469Z,27.64
2022-08-17T08:23:33.246Z,27.65
2022-08-17T08:24:40.490Z,27.66
2022-08-17T08:25:33.518Z,27.67
2022-08-17T08:26:33.238Z,27.68
2022-08-17T08:27:33.488Z,27.69
2022-08-17T08:28:33.195Z,27.69
2022-08-17T08:29:39.523Z,27.69
2022-08-17T08:30:33.222Z,27.70
2022-08-17T08:31:33.244Z,27.70
2022-08-17T08:32:33.135Z,27.71
2022-08-17T08:33:33.429Z,27.72
2022-08-17T08:34:59.029Z,27.73
2022-08-17T08:35:40.417Z,27.75
2022-08-17T08:37:12.771Z,27.77
2022-08-17T08:37:39.105Z,27.78
2022-08-17T08:38:34.889Z,27.80
2022-08-17T08:39:39.442Z,27.82
2022-08-17T08:40:33.064Z,27.84
2022-08-17T08:41:33.568Z,27.86
2022-08-17T08:42:33.165Z,27.88
2022-08-17T08:43:33.015Z,27.90
2022-08-17T08:45:00.504Z,27.92
2022-08-17T08:45:40.533Z,27.93
2022-08-17T08:46:32.974Z,27.95
2022-08-17T08:47:35.510Z,27.96
2022-08-17T08:48:56.376Z,27.97
2022-08-17T08:50:02.233Z,27.99
2022-08-17T08:50:38.450Z,28.00
2022-08-17T08:51:39.468Z,28.02
2022-08-17T08:52:32.906Z,28.03
2022-08-17T08:53:32.867Z,28.04
2022-08-17T08:54:32.888Z,28.06
2022-08-17T08:55:33.836Z,28.08
2022-08-17T08:56:39.494Z,28.09
2022-08-17T08:57:34.455Z,28.11
2022-08-17T08:58:41.612Z,28.13
2022-08-17T08:59:35.279Z,28.16
2022-08-17T09:00:34.300Z,28.18
2022-08-17T09:01:33.868Z,28.21
2022-08-17T09:02:39.429Z,28.24
2022-08-17T09:03:51.788Z,28.27
2022-08-17T09:04:45.107Z,28.30
2022-08-17T09:05:33.704Z,28.33
2022-08-17T09:06:39.271Z,28.36
2022-08-17T09:07:40.509Z,28.39
2022-08-17T09:08:32.701Z,28.42
2022-08-17T09:09:32.668Z,28.45
2022-08-17T09:10:33.588Z,28.48
2022-08-17T09:11:32.910Z,28.50
2022-08-17T09:12:32.952Z,28.53
2022-08-17T09:13:38.939Z,28.55
2022-08-17T09:14:43.093Z,28.58
2022-08-17T09:15:34.126Z,28.60
2022-08-17T09:16:32.596Z,28.62
2022-08-17T09:17:32.685Z,28.64
2022-08-17T09:19:00.418Z,28.67
2022-08-17T09:19:39.901Z,28.69
2022-08-17T09:20:33.320Z,28.72
2022-08-17T09:21:33.712Z,28.75
2022-08-17T09:22:32.543Z,28.78
2022-08-17T09:23:32.506Z,28.82
2022-08-17T09:24:39.021Z,28.85
2022-08-17T09:25:32.484Z,28.89
2022-08-17T09:26:32.505Z,28.92
2022-08-17T09:27:32.447Z,28.96
2022-08-17T09:28:32.768Z,29.00
2022-08-17T09:29:32.451Z,29.04
2022-08-17T09:30:39.074Z,29.08
2022-08-17T09:31:33.504Z,29.12
2022-08-17T09:32:32.415Z,29.16
2022-08-17T09:33:32.414Z,29.20
2022-08-17T09:34:33.363Z,29.24
2022-08-17T09:35:33.810Z,29.28
2022-08-17T09:36:40.135Z,29.32
2022-08-17T09:37:32.307Z,29.36
2022-08-17T09:38:39.567Z,29.40
2022-08-17T09:39:32.613Z,29.45
2022-08-17T09:40:32.267Z,29.50
2022-08-17T09:41:32.284Z,29.55
2022-08-17T09:42:38.605Z,29.60
2022-08-17T09:43:32.261Z,29.65
2022-08-17T09:44:32.248Z,29.71
2022-08-17T09:45:32.521Z,29.77
2022-08-17T09:46:32.222Z,29.82
2022-08-17T09:47:38.463Z,29.88
2022-08-17T09:48:32.257Z,29.93
2022-08-17T09:49:32.189Z,29.98
2022-08-17T09:50:57.415Z,30.04
2022-08-17T09:51:34.379Z,30.09
2022-08-17T09:52:36.180Z,30.14
2022-08-17T09:53:38.657Z,30.19
2022-08-17T09:54:40.297Z,30.24
2022-08-17T09:55:33.617Z,30.30
2022-08-17T09:56:32.071Z,30.36
2022-08-17T09:57:32.621Z,30.42
2022-08-17T09:58:32.118Z,30.49
2022-08-17T09:59:39.265Z,30.55
2022-08-17T10:00:32.098Z,30.62
2022-08-17T10:01:32.387Z,30.67
2022-08-17T10:02:32.024Z,30.73
2022-08-17T10:03:32.932Z,30.79
2022-08-17T10:04:32.891Z,30.84
2022-08-17T10:05:38.532Z,30.89
2022-08-17T10:06:33.006Z,30.93
2022-08-17T10:07:32.038Z,30.97
2022-08-17T10:08:31.955Z,31.00
2022-08-17T10:09:31.935Z,31.03
2022-08-17T10:10:32.380Z,31.06
2022-08-17T10:11:38.234Z,31.09
2022-08-17T10:12:33.351Z,31.11
2022-08-17T10:13:32.823Z,31.13
2022-08-17T10:14:37.836Z,31.16
2022-08-17T10:15:33.394Z,31.18
2022-08-17T10:16:31.812Z,31.21
2022-08-17T10:17:38.127Z,31.23
2022-08-17T10:18:33.288Z,31.26
2022-08-17T10:19:31.809Z,31.29
2022-08-17T10:20:31.758Z,31.31
2022-08-17T10:21:31.798Z,31.34
2022-08-17T10:22:34.533Z,31.36
2022-08-17T10:23:38.049Z,31.38
2022-08-17T10:24:31.718Z,31.39
2022-08-17T10:25:53.515Z,31.41
2022-08-17T10:26:53.463Z,31.41
2022-08-17T10:27:33.163Z,31.41
2022-08-17T10:28:37.976Z,31.41
2022-08-17T10:29:31.637Z,31.40
2022-08-17T10:30:33.194Z,31.38
2022-08-17T10:31:35.891Z,31.39
2022-08-17T10:32:32.743Z,31.40
2022-08-17T10:33:31.620Z,31.43
2022-08-17T10:34:41.224Z,31.46
2022-08-17T10:35:31.606Z,31.49
2022-08-17T10:36:31.564Z,31.50
2022-08-17T10:37:31.545Z,31.50
2022-08-17T10:38:31.673Z,31.49
2022-08-17T10:39:32.085Z,31.48
2022-08-17T10:40:37.820Z,31.47
2022-08-17T10:41:31.510Z,31.46
2022-08-17T10:42:32.941Z,31.46
2022-08-17T10:43:31.492Z,31.46
2022-08-17T10:44:39.608Z,31.46
2022-08-17T10:45:39.306Z,31.47
2022-08-17T10:46:31.897Z,31.47
2022-08-17T10:47:47.140Z,31.47
2022-08-17T10:48:32.905Z,31.48
2022-08-17T10:49:31.502Z,31.48
2022-08-17T10:50:31.417Z,31.48
2022-08-17T10:51:37.746Z,31.49
2022-08-17T10:52:31.377Z,31.51
2022-08-17T10:53:31.365Z,31.54
2022-08-17T10:54:31.374Z,31.58
2022-08-17T10:55:32.271Z,31.62
2022-08-17T10:56:31.314Z,31.66
2022-08-17T10:57:37.709Z,31.71
2022-08-17T10:58:31.354Z,31.76
2022-08-17T10:59:31.275Z,31.81
2022-08-17T11:00:31.371Z,31.86
2022-08-17T11:01:32.411Z,31.89
2022-08-17T11:02:31.245Z,31.91
2022-08-17T11:03:37.901Z,31.92
2022-08-17T11:04:31.243Z,31.92
2022-08-17T11:05:31.217Z,31.92
2022-08-17T11:06:32.180Z,31.92
2022-08-17T11:07:31.196Z,31.92
2022-08-17T11:08:38.181Z,31.93
2022-08-17T11:09:31.161Z,31.93
2022-08-17T11:10:31.364Z,31.92
2022-08-17T11:11:32.133Z,31.91
2022-08-17T11:12:31.402Z,31.89
2022-08-17T11:13:31.405Z,31.87
2022-08-17T11:14:38.337Z,31.86
2022-08-17T11:15:31.386Z,31.86
2022-08-17T11:16:31.096Z,31.87
2022-08-17T11:17:31.395Z,31.89
2022-08-17T11:18:31.306Z,31.93
2022-08-17T11:19:31.615Z,31.98
2022-08-17T11:20:37.639Z,32.05
2022-08-17T11:21:31.045Z,32.10
2022-08-17T11:22:33.703Z,32.13
2022-08-17T11:23:31.017Z,32.13
2022-08-17T11:24:30.969Z,32.11
2022-08-17T11:25:31.021Z,32.08
2022-08-17T11:26:38.341Z,32.04
2022-08-17T11:27:31.230Z,32.02
2022-08-17T11:28:31.266Z,32.01
2022-08-17T11:29:31.282Z,32.01
2022-08-17T11:30:30.969Z,32.04
2022-08-17T11:31:38.923Z,32.07
2022-08-17T11:32:30.967Z,32.11
2022-08-17T11:33:30.902Z,32.15
2022-08-17T11:34:31.143Z,32.20
2022-08-17T11:35:30.908Z,32.27
2022-08-17T11:36:40.124Z,32.38
2022-08-17T11:37:30.812Z,32.54
2022-08-17T11:38:30.831Z,32.72
2022-08-17T11:39:30.869Z,32.91
2022-08-17T11:41:01.974Z,33.09
2022-08-17T11:42:12.508Z,33.26
2022-08-17T11:42:31.739Z,33.41
2022-08-17T11:44:52.450Z,34.89
2022-08-17T11:46:29.733Z,34.50
2022-08-17T11:46:54.632Z,34.28
2022-08-17T11:48:58.998Z,35.25
2022-08-17T11:50:42.934Z,34.84
2022-08-17T11:51:00.798Z,34.56
2022-08-17T11:53:13.224Z,35.15
2022-08-17T11:55:34.998Z,35.08
2022-08-17T11:56:46.948Z,34.66
2022-08-17T11:58:10.227Z,34.39
2022-08-17T11:58:28.795Z,34.25
2022-08-17T11:59:20.530Z,34.21
2022-08-17T12:01:28.696Z,35.57
2022-08-17T12:03:20.869Z,35.18
2022-08-17T12:03:37.996Z,34.97
2022-08-17T12:04:33.270Z,34.88
2022-08-17T12:06:15.216Z,34.84
2022-08-17T12:06:44.494Z,34.80
2022-08-17T12:07:56.313Z,34.75
2022-08-17T12:08:31.240Z,34.70
2022-08-17T12:10:13.136Z,34.66
2022-08-17T12:10:35.187Z,34.63
2022-08-17T12:12:13.134Z,34.61
2022-08-17T12:12:28.573Z,34.61
2022-08-17T12:14:19.188Z,34.60
2022-08-17T12:15:05.885Z,34.58
2022-08-17T12:16:02.701Z,34.55
2022-08-17T12:16:27.198Z,34.51
2022-08-17T12:18:31.976Z,35.46
2022-08-17T12:19:45.368Z,35.04
2022-08-17T12:20:30.245Z,34.75
2022-08-17T12:21:30.570Z,34.59
2022-08-17T12:22:30.231Z,34.53
2022-08-17T12:23:37.499Z,34.55
2022-08-17T12:24:30.227Z,34.61
2022-08-17T12:25:30.208Z,34.69
2022-08-17T12:27:13.268Z,34.78
2022-08-17T12:28:04.399Z,34.89
2022-08-17T12:29:49.503Z,36.48
2022-08-17T12:31:27.613Z,36.11
2022-08-17T12:31:45.352Z,35.90
2022-08-17T12:33:28.118Z,35.83
2022-08-17T12:33:44.211Z,35.83
2022-08-17T12:35:20.586Z,35.84
2022-08-17T12:36:05.403Z,35.85
2022-08-17T12:36:47.955Z,35.84
2022-08-17T12:38:32.646Z,35.82
2022-08-17T12:38:46.446Z,35.82
2022-08-17T12:40:50.306Z,36.96
2022-08-17T12:42:14.967Z,36.56
2022-08-17T12:43:41.108Z,36.32
2022-08-17T12:44:11.542Z,36.20
2022-08-17T12:46:00.734Z,37.32
2022-08-17T12:47:40.735Z,36.92
2022-08-17T12:48:03.694Z,36.69
2022-08-17T12:49:47.496Z,36.60
2022-08-17T12:50:03.716Z,36.58
2022-08-17T12:51:07.295Z,36.59
2022-08-17T12:52:00.688Z,36.61
2022-08-17T12:53:02.499Z,36.61
2022-08-17T12:54:00.648Z,36.58
2022-08-17T12:55:00.640Z,36.53
2022-08-17T12:56:06.965Z,36.47
2022-08-17T12:57:00.969Z,36.41
2022-08-17T12:58:00.819Z,36.35
2022-08-17T12:59:00.674Z,36.28
2022-08-17T13:00:00.808Z,36.21
2022-08-17T13:01:06.863Z,36.14
2022-08-17T13:02:00.671Z,36.05
2022-08-17T13:03:00.609Z,35.95
2022-08-17T13:04:00.571Z,35.85